createdAt,value
2018-12-06T00:00:19.302Z,8.05
2018-12-06T00:02:12.210Z,8.04
2018-12-06T00:03:12.215Z,8.07
2018-12-06T00:05:05.120Z,7.97
2018-12-06T00:06:05.132Z,7.98
2018-12-06T00:07:58.516Z,7.92
2018-12-06T00:08:58.527Z,7.93
2018-12-06T00:10:51.509Z,8.00
2018-12-06T00:11:51.443Z,7.97
2018-12-06T00:13:44.334Z,8.01
2018-12-06T00:14:44.349Z,7.90
2018-12-06T00:16:37.252Z,7.92
2018-12-06T00:17:37.256Z,7.85
2018-12-06T00:19:30.657Z,7.75
2018-12-06T00:20:30.670Z,7.71
2018-12-06T00:22:25.067Z,7.69
2018-12-06T00:23:25.071Z,7.71
2018-12-06T00:25:17.983Z,7.69
2018-12-06T00:26:17.986Z,7.72
2018-12-06T00:28:10.878Z,7.79
2018-12-06T00:29:10.894Z,7.72
2018-12-06T00:31:03.826Z,7.82
2018-12-06T00:32:03.799Z,7.83
2018-12-06T00:33:57.198Z,7.92
2018-12-06T00:34:57.213Z,7.89
2018-12-06T00:36:50.146Z,8.07
2018-12-06T00:37:50.140Z,8.04
2018-12-06T00:39:43.045Z,8.15
2018-12-06T00:40:43.054Z,8.05
2018-12-06T00:42:35.966Z,8.10
2018-12-06T00:43:35.976Z,8.04
2018-12-06T00:45:29.372Z,7.98
2018-12-06T00:46:29.375Z,7.90
2018-12-06T00:48:22.274Z,8.00
2018-12-06T00:49:22.285Z,8.01
2018-12-06T00:51:15.193Z,8.08
2018-12-06T00:52:15.198Z,8.02
2018-12-06T00:54:08.099Z,8.02
2018-12-06T00:55:08.110Z,8.07
2018-12-06T00:57:01.035Z,8.07
2018-12-06T00:58:01.023Z,8.04
2018-12-06T00:59:53.981Z,8.07
2018-12-06T01:00:53.929Z,7.97
2018-12-06T01:02:46.830Z,8.10
2018-12-06T01:03:46.837Z,8.01
2018-12-06T01:05:39.738Z,8.11
2018-12-06T01:06:39.746Z,8.05
2018-12-06T01:08:32.671Z,8.18
2018-12-06T01:09:32.659Z,8.19
2018-12-06T01:11:26.120Z,8.19
2018-12-06T01:12:26.102Z,8.20
2018-12-06T01:14:18.992Z,8.29
2018-12-06T01:15:19.012Z,8.26
2018-12-06T01:17:11.916Z,8.36
2018-12-06T01:18:11.930Z,8.30
2018-12-06T01:20:05.331Z,8.44
2018-12-06T01:21:05.334Z,8.41
2018-12-06T01:22:58.240Z,8.41
2018-12-06T01:23:58.247Z,8.36
2018-12-06T01:25:51.654Z,8.38
2018-12-06T01:26:51.658Z,8.34
2018-12-06T01:28:44.565Z,8.22
2018-12-06T01:29:44.580Z,8.20
2018-12-06T01:31:37.479Z,8.25
2018-12-06T01:32:37.487Z,8.25
2018-12-06T01:34:30.401Z,8.18
2018-12-06T01:35:30.420Z,8.22
2018-12-06T01:37:23.309Z,8.22
2018-12-06T01:38:23.311Z,8.25
2018-12-06T01:40:16.711Z,8.20
2018-12-06T01:41:16.720Z,8.15
2018-12-06T01:43:09.626Z,8.18
2018-12-06T01:44:09.629Z,8.19
2018-12-06T01:46:02.531Z,8.18
2018-12-06T01:47:02.538Z,8.36
2018-12-06T01:48:55.437Z,8.28
2018-12-06T01:49:55.450Z,8.34
2018-12-06T01:51:48.847Z,8.33
2018-12-06T01:52:48.853Z,8.37
2018-12-06T01:54:41.757Z,8.33
2018-12-06T01:55:41.771Z,8.18
2018-12-06T01:57:34.721Z,8.23
2018-12-06T01:58:34.696Z,8.26
2018-12-06T02:00:27.595Z,8.22
2018-12-06T02:01:27.606Z,8.19
2018-12-06T02:03:20.530Z,8.23
2018-12-06T02:04:20.517Z,8.20
2018-12-06T02:06:14.443Z,8.29
2018-12-06T02:07:14.449Z,8.33
2018-12-06T02:09:07.347Z,8.40
2018-12-06T02:10:07.361Z,8.41
2018-12-06T02:12:00.278Z,8.44
2018-12-06T02:13:00.365Z,8.52
2018-12-06T02:14:53.182Z,8.48
2018-12-06T02:15:53.193Z,8.52
2018-12-06T02:17:46.603Z,8.47
2018-12-06T02:18:46.606Z,8.56
2018-12-06T02:20:39.502Z,8.59
2018-12-06T02:21:39.518Z,8.61
2018-12-06T02:23:32.916Z,8.73
2018-12-06T02:24:32.925Z,8.68
2018-12-06T02:26:25.828Z,8.70
2018-12-06T02:27:25.832Z,8.73
2018-12-06T02:29:18.731Z,8.66
2018-12-06T02:30:18.745Z,8.66
2018-12-06T02:32:11.651Z,8.71
2018-12-06T02:33:11.657Z,8.77
2018-12-06T02:35:04.557Z,8.77
2018-12-06T02:36:04.570Z,8.83
2018-12-06T02:37:57.471Z,8.89
2018-12-06T02:38:57.477Z,8.87
2018-12-06T02:40:50.393Z,8.87
2018-12-06T02:41:50.398Z,8.89
2018-12-06T02:43:43.301Z,8.95
2018-12-06T02:44:43.304Z,8.99
2018-12-06T02:46:36.733Z,8.94
2018-12-06T02:47:36.719Z,8.92
2018-12-06T02:49:29.616Z,8.92
2018-12-06T02:50:29.630Z,8.92
2018-12-06T02:52:22.532Z,8.96
2018-12-06T02:53:22.536Z,8.91
2018-12-06T02:55:15.441Z,8.94
2018-12-06T02:56:15.449Z,8.95
2018-12-06T02:58:08.857Z,8.84
2018-12-06T02:59:08.863Z,8.89
2018-12-06T03:01:01.771Z,8.91
2018-12-06T03:02:01.783Z,8.81
2018-12-06T03:03:54.705Z,8.95
2018-12-06T03:04:54.709Z,8.84
2018-12-06T03:06:47.610Z,8.87
2018-12-06T03:07:47.623Z,8.89
2018-12-06T03:09:40.536Z,8.89
2018-12-06T03:10:40.539Z,8.91
2018-12-06T03:12:33.458Z,8.87
2018-12-06T03:13:33.450Z,8.86
2018-12-06T03:15:26.348Z,8.94
2018-12-06T03:16:26.373Z,8.99
2018-12-06T03:18:19.758Z,8.94
2018-12-06T03:19:19.763Z,8.89
2018-12-06T03:21:13.168Z,8.89
2018-12-06T03:22:13.182Z,8.91
2018-12-06T03:24:06.136Z,8.74
2018-12-06T03:25:06.100Z,8.87
2018-12-06T03:26:59.008Z,8.89
2018-12-06T03:27:59.011Z,8.89
2018-12-06T03:29:52.414Z,8.92
2018-12-06T03:30:52.419Z,8.87
2018-12-06T03:32:45.837Z,8.84
2018-12-06T03:33:45.849Z,8.92
2018-12-06T03:35:38.764Z,9.01
2018-12-06T03:36:38.770Z,8.94
2018-12-06T03:38:31.783Z,9.01
2018-12-06T03:39:31.688Z,8.95
2018-12-06T03:41:24.587Z,9.05
2018-12-06T03:42:24.606Z,9.14
2018-12-06T03:44:18.000Z,9.23
2018-12-06T03:45:18.009Z,9.13
2018-12-06T03:47:11.398Z,9.15
2018-12-06T03:48:11.413Z,9.23
2018-12-06T03:50:04.323Z,9.31
2018-12-06T03:51:04.328Z,9.24
2018-12-06T03:52:57.234Z,9.28
2018-12-06T03:53:57.245Z,9.29
2018-12-06T03:55:50.150Z,9.20
2018-12-06T03:56:50.159Z,9.23
2018-12-06T03:58:43.053Z,9.35
2018-12-06T03:59:43.068Z,9.33
2018-12-06T04:01:35.977Z,9.40
2018-12-06T04:02:35.992Z,9.40
2018-12-06T04:04:29.376Z,9.46
2018-12-06T04:05:29.384Z,9.46
2018-12-06T04:07:22.299Z,9.43
2018-12-06T04:08:22.295Z,9.46
2018-12-06T04:10:15.202Z,9.48
2018-12-06T04:11:15.211Z,9.40
2018-12-06T04:13:08.607Z,9.42
2018-12-06T04:14:08.617Z,9.40
2018-12-06T04:16:01.527Z,9.50
2018-12-06T04:17:01.527Z,9.48
2018-12-06T04:18:54.427Z,9.54
2018-12-06T04:19:54.441Z,9.51
2018-12-06T04:21:47.387Z,9.51
2018-12-06T04:22:47.365Z,9.51
2018-12-06T04:24:40.263Z,9.58
2018-12-06T04:25:40.275Z,9.54
2018-12-06T04:27:33.203Z,9.57
2018-12-06T04:28:33.211Z,9.50
2018-12-06T04:30:26.132Z,9.53
2018-12-06T04:31:26.124Z,9.60
2018-12-06T04:33:19.020Z,9.69
2018-12-06T04:34:19.037Z,9.69
2018-12-06T04:36:11.948Z,9.75
2018-12-06T04:37:11.955Z,9.74
2018-12-06T04:39:05.345Z,9.76
2018-12-06T04:40:05.359Z,9.65
2018-12-06T04:41:58.272Z,9.75
2018-12-06T04:42:58.274Z,9.78
2018-12-06T04:44:51.173Z,9.68
2018-12-06T04:45:51.200Z,9.65
2018-12-06T04:47:44.098Z,9.74
2018-12-06T04:48:44.101Z,9.71
2018-12-06T04:50:37.001Z,9.66
2018-12-06T04:51:37.015Z,9.66
2018-12-06T04:53:30.414Z,9.64
2018-12-06T04:54:30.422Z,9.64
2018-12-06T04:56:23.328Z,9.69
2018-12-06T04:57:23.355Z,9.64
2018-12-06T04:59:16.344Z,9.76
2018-12-06T05:00:16.350Z,9.81
2018-12-06T05:02:09.487Z,9.79
2018-12-06T05:03:09.265Z,9.81
2018-12-06T05:05:02.331Z,9.93
2018-12-06T05:06:02.239Z,9.89
2018-12-06T05:07:55.686Z,9.91
2018-12-06T05:08:55.198Z,9.90
2018-12-06T05:10:48.909Z,9.94
2018-12-06T05:11:48.605Z,9.94
2018-12-06T05:13:42.206Z,9.96
2018-12-06T05:14:42.211Z,10.04
2018-12-06T05:16:35.159Z,10.15
2018-12-06T05:17:35.128Z,10.20
2018-12-06T05:19:28.026Z,10.07
2018-12-06T05:20:28.041Z,10.01
2018-12-06T05:22:20.958Z,10.05
2018-12-06T05:23:20.954Z,10.22
2018-12-06T05:25:13.851Z,10.20
2018-12-06T05:26:13.864Z,10.23
2018-12-06T05:28:06.802Z,10.25
2018-12-06T05:29:06.784Z,10.18
2018-12-06T05:31:00.223Z,10.25
2018-12-06T05:32:00.188Z,10.29
2018-12-06T05:33:53.101Z,10.25
2018-12-06T05:34:53.106Z,10.29
2018-12-06T05:36:46.495Z,10.29
2018-12-06T05:37:46.512Z,10.25
2018-12-06T05:39:39.424Z,10.30
2018-12-06T05:40:39.430Z,10.32
2018-12-06T05:42:32.652Z,10.33
2018-12-06T05:43:32.346Z,10.32
2018-12-06T05:45:25.245Z,10.33
2018-12-06T05:46:25.257Z,10.27
2018-12-06T05:48:18.163Z,10.30
2018-12-06T05:49:18.169Z,10.29
2018-12-06T05:51:11.068Z,10.33
2018-12-06T05:52:11.082Z,10.29
2018-12-06T05:54:04.092Z,10.34
2018-12-06T05:55:04.008Z,10.27
2018-12-06T05:56:56.894Z,10.34
2018-12-06T05:57:56.907Z,10.26
2018-12-06T05:59:49.822Z,10.36
2018-12-06T06:00:49.833Z,10.27
2018-12-06T06:02:42.758Z,10.34
2018-12-06T06:03:43.511Z,10.27
2018-12-06T06:05:36.642Z,10.27
2018-12-06T06:06:36.651Z,10.30
2018-12-06T06:08:29.570Z,10.32
2018-12-06T06:09:29.566Z,10.40
2018-12-06T06:11:22.475Z,10.44
2018-12-06T06:12:22.479Z,10.38
2018-12-06T06:14:15.408Z,10.38
2018-12-06T06:15:15.395Z,10.44
2018-12-06T06:17:08.312Z,10.36
2018-12-06T06:18:08.306Z,10.33
2018-12-06T06:20:01.221Z,10.33
2018-12-06T06:21:01.226Z,10.34
2018-12-06T06:22:54.254Z,10.38
2018-12-06T06:23:54.264Z,10.38
2018-12-06T06:25:47.173Z,10.40
2018-12-06T06:26:47.183Z,10.41
2018-12-06T06:28:40.086Z,10.51
2018-12-06T06:29:40.095Z,10.51
2018-12-06T06:31:32.994Z,10.41
2018-12-06T06:32:33.029Z,10.44
2018-12-06T06:34:25.914Z,10.40
2018-12-06T06:35:25.933Z,10.45
2018-12-06T06:37:18.819Z,10.40
2018-12-06T06:38:18.854Z,10.44
2018-12-06T06:40:11.743Z,10.41
2018-12-06T06:41:11.765Z,10.42
2018-12-06T06:43:04.645Z,10.51
2018-12-06T06:44:04.672Z,10.51
2018-12-06T06:45:57.569Z,10.44
2018-12-06T06:46:57.580Z,10.40
2018-12-06T06:48:50.493Z,10.40
2018-12-06T06:49:50.490Z,10.47
2018-12-06T06:51:43.394Z,10.40
2018-12-06T06:52:43.411Z,10.38
2018-12-06T06:54:36.318Z,10.38
2018-12-06T06:55:36.325Z,10.40
2018-12-06T06:57:29.238Z,10.34
2018-12-06T06:58:29.263Z,10.40
2018-12-06T07:00:22.180Z,10.38
2018-12-06T07:01:22.192Z,10.41
2018-12-06T07:03:15.092Z,10.51
2018-12-06T07:04:15.111Z,10.44
2018-12-06T07:06:08.011Z,10.51
2018-12-06T07:07:08.024Z,10.40
2018-12-06T07:09:00.932Z,10.48
2018-12-06T07:10:00.932Z,10.52
2018-12-06T07:11:53.930Z,10.56
2018-12-06T07:12:53.851Z,10.52
2018-12-06T07:14:46.755Z,10.56
2018-12-06T07:15:46.762Z,10.56
2018-12-06T07:17:39.664Z,10.51
2018-12-06T07:18:39.681Z,10.51
2018-12-06T07:20:32.583Z,10.63
2018-12-06T07:21:32.591Z,10.61
2018-12-06T07:23:25.493Z,10.59
2018-12-06T07:24:25.510Z,10.60
2018-12-06T07:26:18.416Z,10.67
2018-12-06T07:27:18.426Z,10.67
2018-12-06T07:29:11.336Z,10.64
2018-12-06T07:30:12.528Z,10.63
2018-12-06T07:32:04.244Z,10.61
2018-12-06T07:33:04.256Z,10.66
2018-12-06T07:34:57.162Z,10.66
2018-12-06T07:35:57.167Z,10.53
2018-12-06T07:37:50.081Z,10.61
2018-12-06T07:38:50.084Z,10.63
2018-12-06T07:40:43.000Z,10.61
2018-12-06T07:41:43.003Z,10.66
2018-12-06T07:43:35.893Z,10.60
2018-12-06T07:44:35.909Z,10.64
2018-12-06T07:46:28.815Z,10.66
2018-12-06T07:47:28.822Z,10.64
2018-12-06T07:49:21.732Z,10.66
2018-12-06T07:50:21.736Z,10.63
2018-12-06T07:52:14.641Z,10.68
2018-12-06T07:53:14.650Z,10.74
2018-12-06T07:55:07.583Z,10.68
2018-12-06T07:56:07.568Z,10.67
2018-12-06T07:58:00.465Z,10.67
2018-12-06T07:59:00.495Z,10.70
2018-12-06T08:00:53.397Z,10.63
2018-12-06T08:01:53.410Z,10.66
2018-12-06T08:03:47.800Z,10.76
2018-12-06T08:04:47.757Z,10.76
2018-12-06T08:06:40.736Z,10.74
2018-12-06T08:07:40.658Z,10.74
2018-12-06T08:09:33.567Z,10.81
2018-12-06T08:10:33.573Z,10.78
2018-12-06T08:12:26.472Z,10.76
2018-12-06T08:13:26.485Z,10.78
2018-12-06T08:15:19.398Z,10.78
2018-12-06T08:16:19.403Z,10.73
2018-12-06T08:18:12.300Z,10.76
2018-12-06T08:19:13.960Z,10.86
2018-12-06T08:21:05.223Z,10.81
2018-12-06T08:22:05.233Z,10.82
2018-12-06T08:23:58.135Z,10.88
2018-12-06T08:24:58.154Z,10.91
2018-12-06T08:26:51.068Z,10.88
2018-12-06T08:27:51.077Z,10.86
2018-12-06T08:29:43.983Z,11.00
2018-12-06T08:30:43.992Z,10.94
2018-12-06T08:32:36.895Z,11.03
2018-12-06T08:33:36.908Z,10.92
2018-12-06T08:35:29.818Z,11.04
2018-12-06T08:36:29.832Z,11.03
2018-12-06T08:38:22.728Z,11.15
2018-12-06T08:39:22.756Z,11.06
2018-12-06T08:41:15.648Z,11.14
2018-12-06T08:42:15.656Z,11.11
2018-12-06T08:44:08.557Z,11.14
2018-12-06T08:45:08.566Z,11.11
2018-12-06T08:47:01.479Z,11.27
2018-12-06T08:48:01.483Z,11.24
2018-12-06T08:49:54.396Z,11.36
2018-12-06T08:50:54.425Z,11.33
2018-12-06T08:52:47.300Z,11.36
2018-12-06T08:53:47.327Z,11.40
2018-12-06T08:55:40.224Z,11.36
2018-12-06T08:56:40.253Z,11.40
2018-12-06T08:58:33.135Z,11.43
2018-12-06T08:59:33.157Z,11.43
2018-12-06T09:01:26.053Z,11.49
2018-12-06T09:02:26.065Z,11.46
2018-12-06T09:04:18.962Z,11.39
2018-12-06T09:05:18.976Z,11.46
2018-12-06T09:07:11.906Z,11.43
2018-12-06T09:08:11.914Z,11.44
2018-12-06T09:10:04.858Z,11.46
2018-12-06T09:11:04.854Z,11.47
2018-12-06T09:12:57.759Z,11.47
2018-12-06T09:13:57.773Z,11.46
2018-12-06T09:15:50.677Z,11.47
2018-12-06T09:16:50.689Z,11.54
2018-12-06T09:18:43.584Z,11.57
2018-12-06T09:19:43.599Z,11.46
2018-12-06T09:21:36.511Z,11.44
2018-12-06T09:22:36.523Z,11.47
2018-12-06T09:24:29.413Z,11.55
2018-12-06T09:25:29.432Z,11.55
2018-12-06T09:27:22.340Z,11.58
2018-12-06T09:28:22.348Z,11.54
2018-12-06T09:30:15.255Z,11.54
2018-12-06T09:31:15.261Z,11.55
2018-12-06T09:33:08.162Z,11.58
2018-12-06T09:34:08.178Z,11.51
2018-12-06T09:36:01.088Z,11.55
2018-12-06T09:37:01.109Z,11.55
2018-12-06T09:38:53.997Z,11.52
2018-12-06T09:39:54.010Z,11.55
2018-12-06T09:41:46.927Z,11.52
2018-12-06T09:42:46.985Z,11.55
2018-12-06T09:44:39.827Z,11.54
2018-12-06T09:45:39.843Z,11.65
2018-12-06T09:47:32.753Z,11.70
2018-12-06T09:48:32.761Z,11.69
2018-12-06T09:50:25.668Z,11.76
2018-12-06T09:51:25.676Z,11.78
2018-12-06T09:53:18.577Z,11.73
2018-12-06T09:54:18.598Z,11.82
2018-12-06T09:56:11.506Z,11.94
2018-12-06T09:57:11.513Z,11.85
2018-12-06T09:59:04.416Z,12.04
2018-12-06T10:00:04.433Z,11.91
2018-12-06T10:01:57.337Z,11.99
2018-12-06T10:02:57.345Z,11.96
2018-12-06T10:04:50.246Z,11.96
2018-12-06T10:05:50.261Z,11.98
2018-12-06T10:07:43.172Z,11.98
2018-12-06T10:08:43.179Z,12.05
2018-12-06T10:10:36.085Z,11.98
2018-12-06T10:11:36.093Z,11.98
2018-12-06T10:13:29.003Z,11.99
2018-12-06T10:14:29.014Z,12.04
2018-12-06T10:16:21.922Z,12.07
2018-12-06T10:17:21.928Z,12.04
2018-12-06T10:19:14.828Z,12.07
2018-12-06T10:20:14.845Z,12.12
2018-12-06T10:22:07.755Z,12.17
2018-12-06T10:23:07.762Z,12.23
2018-12-06T10:25:00.662Z,12.20
2018-12-06T10:26:00.680Z,12.24
2018-12-06T10:27:53.587Z,12.23
2018-12-06T10:28:53.595Z,12.27
2018-12-06T10:30:46.507Z,12.24
2018-12-06T10:31:46.514Z,12.31
2018-12-06T10:33:39.418Z,12.42
2018-12-06T10:34:39.432Z,12.39
2018-12-06T10:36:32.342Z,12.29
2018-12-06T10:37:32.353Z,12.32
2018-12-06T10:39:25.253Z,12.28
2018-12-06T10:40:25.273Z,12.28
2018-12-06T10:42:18.179Z,12.39
2018-12-06T10:43:18.186Z,12.38
2018-12-06T10:45:11.091Z,12.41
2018-12-06T10:46:11.106Z,12.45
2018-12-06T10:48:04.017Z,12.38
2018-12-06T10:49:04.027Z,12.39
2018-12-06T10:50:56.933Z,12.45
2018-12-06T10:51:56.941Z,12.45
2018-12-06T10:53:49.841Z,12.42
2018-12-06T10:54:49.858Z,12.42
2018-12-06T10:56:42.785Z,12.41
2018-12-06T10:57:42.772Z,12.42
2018-12-06T10:59:35.696Z,12.50
2018-12-06T11:00:35.690Z,12.49
2018-12-06T11:02:28.606Z,12.53
2018-12-06T11:03:28.617Z,12.53
2018-12-06T11:05:21.523Z,12.52
2018-12-06T11:06:21.531Z,12.64
2018-12-06T11:08:14.461Z,12.60
2018-12-06T11:09:14.450Z,12.54
2018-12-06T11:11:07.380Z,12.53
2018-12-06T11:12:07.366Z,12.52
2018-12-06T11:14:00.762Z,12.45
2018-12-06T11:15:00.778Z,12.53
2018-12-06T11:16:53.687Z,12.45
2018-12-06T11:17:53.694Z,12.46
2018-12-06T11:19:46.600Z,12.52
2018-12-06T11:20:46.615Z,12.47
2018-12-06T11:22:39.524Z,12.46
2018-12-06T11:23:39.535Z,12.46
2018-12-06T11:25:32.444Z,12.57
2018-12-06T11:26:32.453Z,12.54
2018-12-06T11:28:25.362Z,12.52
2018-12-06T11:29:25.370Z,12.54
2018-12-06T11:31:18.283Z,12.60
2018-12-06T11:32:18.292Z,12.54
2018-12-06T11:34:11.192Z,12.64
2018-12-06T11:35:11.209Z,12.62
2018-12-06T11:37:04.117Z,12.64
2018-12-06T11:38:04.126Z,12.62
2018-12-06T11:39:57.032Z,12.65
2018-12-06T11:40:57.045Z,12.59
2018-12-06T11:42:49.954Z,12.62
2018-12-06T11:43:49.961Z,12.74
2018-12-06T11:45:42.860Z,12.67
2018-12-06T11:46:42.878Z,12.64
2018-12-06T11:48:35.811Z,12.67
2018-12-06T11:49:35.798Z,12.64
2018-12-06T11:51:28.721Z,12.57
2018-12-06T11:52:28.711Z,12.57
2018-12-06T11:54:21.629Z,12.65
2018-12-06T11:55:21.740Z,12.65
2018-12-06T11:57:14.549Z,12.77
2018-12-06T11:58:14.557Z,12.72
2018-12-06T12:00:07.449Z,12.77
2018-12-06T12:01:07.468Z,12.77
2018-12-06T12:03:00.388Z,12.75
2018-12-06T12:04:00.386Z,12.79
2018-12-06T12:05:58.515Z,12.72
2018-12-06T12:06:53.308Z,12.79
2018-12-06T12:08:46.235Z,12.75
2018-12-06T12:09:46.227Z,12.78
2018-12-06T12:11:39.138Z,12.74
2018-12-06T12:12:39.147Z,12.74
2018-12-06T12:14:32.050Z,12.86
2018-12-06T12:15:32.067Z,12.78
2018-12-06T12:17:24.975Z,12.78
2018-12-06T12:18:24.983Z,12.75
2018-12-06T12:20:17.888Z,12.85
2018-12-06T12:21:17.901Z,12.85
2018-12-06T12:23:10.817Z,12.85
2018-12-06T12:24:10.823Z,12.85
2018-12-06T12:26:03.729Z,12.85
2018-12-06T12:27:03.741Z,12.96
2018-12-06T12:28:56.659Z,12.87
2018-12-06T12:29:56.663Z,12.90
2018-12-06T12:31:49.577Z,12.97
2018-12-06T12:32:49.585Z,12.90
2018-12-06T12:34:42.490Z,13.00
2018-12-06T12:35:42.505Z,12.95
2018-12-06T12:37:35.621Z,13.03
2018-12-06T12:38:35.629Z,13.08
2018-12-06T12:40:28.532Z,13.10
2018-12-06T12:41:28.547Z,13.03
2018-12-06T12:43:21.452Z,13.10
2018-12-06T12:44:21.463Z,13.03
2018-12-06T12:46:14.364Z,13.14
2018-12-06T12:47:14.382Z,13.20
2018-12-06T12:49:07.291Z,13.22
2018-12-06T12:50:07.299Z,13.32
2018-12-06T12:52:00.210Z,13.17
2018-12-06T12:53:00.217Z,13.33
2018-12-06T12:54:53.120Z,13.28
2018-12-06T12:55:53.137Z,13.29
2018-12-06T12:57:46.047Z,13.30
2018-12-06T12:58:46.062Z,13.42
2018-12-06T13:00:38.961Z,13.44
2018-12-06T13:01:38.978Z,13.42
2018-12-06T13:03:31.889Z,13.41
2018-12-06T13:04:31.899Z,13.39
2018-12-06T13:06:24.799Z,13.36
2018-12-06T13:07:24.818Z,13.32
2018-12-06T13:09:17.731Z,13.39
2018-12-06T13:10:17.739Z,13.41
2018-12-06T13:12:10.647Z,13.33
2018-12-06T13:13:10.659Z,13.33
2018-12-06T13:15:03.558Z,13.39
2018-12-06T13:16:03.578Z,13.42
2018-12-06T13:17:56.491Z,13.42
2018-12-06T13:18:56.497Z,13.33
2018-12-06T13:20:49.412Z,13.32
2018-12-06T13:21:49.420Z,13.48
2018-12-06T13:23:42.326Z,13.45
2018-12-06T13:24:42.339Z,13.41
2018-12-06T13:26:35.250Z,13.44
2018-12-06T13:27:35.257Z,13.42
2018-12-06T13:29:28.165Z,13.42
2018-12-06T13:30:28.181Z,13.49
2018-12-06T13:32:21.092Z,13.49
2018-12-06T13:33:21.100Z,13.36
2018-12-06T13:35:14.021Z,13.49
2018-12-06T13:36:14.017Z,13.45
2018-12-06T13:38:06.927Z,13.49
2018-12-06T13:39:06.943Z,13.45
2018-12-06T13:40:59.856Z,13.59
2018-12-06T13:41:59.865Z,13.55
2018-12-06T13:43:52.769Z,13.59
2018-12-06T13:44:52.783Z,13.52
2018-12-06T13:46:45.701Z,13.55
2018-12-06T13:47:45.704Z,13.55
2018-12-06T13:49:38.674Z,13.62
2018-12-06T13:50:38.668Z,13.54
2018-12-06T13:52:31.587Z,13.60
2018-12-06T13:53:31.584Z,13.55
2018-12-06T13:55:24.496Z,13.69
2018-12-06T13:56:24.504Z,13.57
2018-12-06T13:58:17.423Z,13.66
2018-12-06T13:59:17.427Z,13.60
2018-12-06T14:01:10.653Z,13.52
2018-12-06T14:02:10.358Z,13.54
2018-12-06T14:04:03.250Z,13.62
2018-12-06T14:05:03.269Z,13.59
2018-12-06T14:06:56.186Z,13.54
2018-12-06T14:07:56.189Z,13.52
2018-12-06T14:09:49.090Z,13.36
2018-12-06T14:10:49.107Z,13.39
2018-12-06T14:12:42.019Z,13.45
2018-12-06T14:13:42.024Z,13.29
2018-12-06T14:15:34.929Z,13.32
2018-12-06T14:16:34.971Z,13.29
2018-12-06T14:18:27.867Z,13.30
2018-12-06T14:19:27.881Z,13.30
2018-12-06T14:21:20.779Z,13.30
2018-12-06T14:22:20.788Z,13.29
2018-12-06T14:24:13.693Z,13.33
2018-12-06T14:25:13.704Z,13.28
2018-12-06T14:27:06.617Z,13.29
2018-12-06T14:28:06.642Z,13.30
2018-12-06T14:29:59.531Z,13.30
2018-12-06T14:30:59.546Z,13.32
2018-12-06T14:32:52.460Z,13.33
2018-12-06T14:33:52.467Z,13.28
2018-12-06T14:35:45.370Z,13.30
2018-12-06T14:36:45.385Z,13.39
2018-12-06T14:38:38.296Z,13.26
2018-12-06T14:39:38.308Z,13.44
2018-12-06T14:41:31.220Z,13.36
2018-12-06T14:42:31.228Z,13.30
2018-12-06T14:44:24.149Z,13.32
2018-12-06T14:45:24.169Z,13.39
2018-12-06T14:47:17.078Z,13.28
2018-12-06T14:48:17.091Z,13.20
2018-12-06T14:50:09.993Z,13.26
2018-12-06T14:51:10.006Z,13.28
2018-12-06T14:53:02.921Z,13.26
2018-12-06T14:54:02.929Z,13.32
2018-12-06T14:55:55.829Z,13.26
2018-12-06T14:56:55.846Z,13.29
2018-12-06T14:58:48.761Z,13.38
2018-12-06T14:59:48.767Z,13.30
2018-12-06T15:01:41.674Z,13.33
2018-12-06T15:02:41.690Z,13.36
2018-12-06T15:04:35.594Z,13.33
2018-12-06T15:05:35.608Z,13.33
2018-12-06T15:07:28.530Z,13.32
2018-12-06T15:08:28.527Z,13.30
2018-12-06T15:10:21.446Z,13.17
2018-12-06T15:11:21.443Z,13.19
2018-12-06T15:13:14.377Z,13.28
2018-12-06T15:14:14.368Z,13.23
2018-12-06T15:16:07.287Z,13.28
2018-12-06T15:17:07.293Z,13.19
2018-12-06T15:19:00.215Z,13.17
2018-12-06T15:20:00.213Z,13.14
2018-12-06T15:21:53.114Z,13.25
2018-12-06T15:22:53.130Z,13.14
2018-12-06T15:24:46.045Z,13.17
2018-12-06T15:25:46.053Z,13.14
2018-12-06T15:27:38.963Z,13.14
2018-12-06T15:28:38.969Z,13.17
2018-12-06T15:30:31.875Z,13.15
2018-12-06T15:31:31.892Z,13.12
2018-12-06T15:33:24.807Z,13.15
2018-12-06T15:34:24.818Z,13.22
2018-12-06T15:36:17.717Z,13.19
2018-12-06T15:37:17.733Z,13.22
2018-12-06T15:39:10.655Z,13.33
2018-12-06T15:40:10.681Z,13.22
2018-12-06T15:42:03.567Z,13.23
2018-12-06T15:43:03.590Z,13.29
2018-12-06T15:44:56.502Z,13.38
2018-12-06T15:45:56.495Z,13.36
2018-12-06T15:47:49.405Z,13.23
2018-12-06T15:48:49.421Z,13.32
2018-12-06T15:50:42.331Z,13.17
2018-12-06T15:51:42.369Z,13.19
2018-12-06T15:53:35.253Z,13.32
2018-12-06T15:54:35.266Z,13.23
2018-12-06T15:56:28.164Z,13.17
2018-12-06T15:57:28.181Z,13.33
2018-12-06T15:59:21.141Z,13.23
2018-12-06T16:00:21.102Z,13.20
2018-12-06T16:02:14.039Z,13.26
2018-12-06T16:03:14.046Z,13.19
2018-12-06T16:05:06.966Z,13.15
2018-12-06T16:06:06.973Z,13.19
2018-12-06T16:07:59.882Z,13.12
2018-12-06T16:08:59.895Z,13.19
2018-12-06T16:10:52.806Z,13.15
2018-12-06T16:11:52.812Z,13.14
2018-12-06T16:13:45.719Z,13.17
2018-12-06T16:14:45.736Z,13.19
2018-12-06T16:16:45.776Z,13.20
2018-12-06T16:17:38.669Z,13.19
2018-12-06T16:19:31.670Z,13.23
2018-12-06T16:20:31.593Z,13.15
2018-12-06T16:22:24.518Z,13.17
2018-12-06T16:23:24.557Z,13.14
2018-12-06T16:25:17.425Z,13.28
2018-12-06T16:26:17.432Z,13.23
2018-12-06T16:28:10.334Z,13.20
2018-12-06T16:29:10.423Z,13.23
2018-12-06T16:31:03.340Z,13.29
2018-12-06T16:32:03.299Z,13.20
2018-12-06T16:33:56.195Z,13.17
2018-12-06T16:34:56.190Z,13.20
2018-12-06T16:36:49.126Z,13.20
2018-12-06T16:37:49.111Z,13.23
2018-12-06T16:39:42.019Z,13.29
2018-12-06T16:40:42.028Z,13.29
2018-12-06T16:42:34.929Z,13.26
2018-12-06T16:43:34.946Z,13.30
2018-12-06T16:45:27.874Z,13.33
2018-12-06T16:46:27.957Z,13.29
2018-12-06T16:48:20.788Z,13.29
2018-12-06T16:49:20.802Z,13.33
2018-12-06T16:51:13.710Z,13.36
2018-12-06T16:52:13.719Z,13.36
2018-12-06T16:54:06.632Z,13.33
2018-12-06T16:55:06.644Z,13.32
2018-12-06T16:56:59.555Z,13.29
2018-12-06T16:57:59.626Z,13.32
2018-12-06T16:59:53.096Z,13.39
2018-12-06T17:00:53.173Z,13.29
2018-12-06T17:02:45.992Z,13.32
2018-12-06T17:03:45.996Z,13.25
2018-12-06T17:05:38.906Z,13.30
2018-12-06T17:06:38.930Z,13.17
2018-12-06T17:08:31.818Z,13.30
2018-12-06T17:09:31.849Z,13.28
2018-12-06T17:11:24.821Z,13.26
2018-12-06T17:12:24.913Z,13.26
2018-12-06T17:14:18.039Z,13.26
2018-12-06T17:15:18.871Z,13.33
2018-12-06T17:17:10.984Z,13.33
2018-12-06T17:18:10.998Z,13.38
2018-12-06T17:20:03.928Z,13.30
2018-12-06T17:21:03.924Z,13.28
2018-12-06T17:22:57.056Z,13.32
2018-12-06T17:23:56.831Z,13.30
2018-12-06T17:25:49.767Z,13.38
2018-12-06T17:26:49.774Z,13.33
2018-12-06T17:28:42.684Z,13.32
2018-12-06T17:29:42.701Z,13.41
2018-12-06T17:31:35.611Z,13.38
2018-12-06T17:32:35.630Z,13.33
2018-12-06T17:34:28.538Z,13.42
2018-12-06T17:35:28.542Z,13.36
2018-12-06T17:37:21.451Z,13.39
2018-12-06T17:38:21.468Z,13.44
2018-12-06T17:40:14.507Z,13.29
2018-12-06T17:41:14.444Z,13.30
2018-12-06T17:43:07.359Z,13.32
2018-12-06T17:44:07.354Z,13.26
2018-12-06T17:46:00.287Z,13.39
2018-12-06T17:47:00.297Z,13.45
2018-12-06T17:48:53.201Z,13.46
2018-12-06T17:49:53.194Z,13.28
2018-12-06T17:51:46.113Z,13.44
2018-12-06T17:52:46.113Z,13.38
2018-12-06T17:54:39.069Z,13.44
2018-12-06T17:55:39.080Z,13.44
2018-12-06T17:57:32.029Z,13.51
2018-12-06T17:58:31.995Z,13.46
2018-12-06T18:00:24.907Z,13.39
2018-12-06T18:01:24.914Z,13.51
2018-12-06T18:03:17.908Z,13.52
2018-12-06T18:04:17.883Z,13.48
2018-12-06T18:06:10.863Z,13.45
2018-12-06T18:07:10.781Z,13.38
2018-12-06T18:09:03.689Z,13.42
2018-12-06T18:10:03.724Z,13.42
2018-12-06T18:11:56.636Z,13.48
2018-12-06T18:12:56.646Z,13.45
2018-12-06T18:14:49.578Z,13.46
2018-12-06T18:15:49.635Z,13.46
2018-12-06T18:17:42.464Z,13.46
2018-12-06T18:18:42.503Z,13.48
2018-12-06T18:20:35.464Z,13.51
2018-12-06T18:21:35.427Z,13.49
2018-12-06T18:23:28.349Z,13.54
2018-12-06T18:24:28.353Z,13.51
2018-12-06T18:26:21.270Z,13.44
2018-12-06T18:27:21.280Z,13.48
2018-12-06T18:29:14.187Z,13.51
2018-12-06T18:30:14.232Z,13.45
2018-12-06T18:32:07.116Z,13.41
2018-12-06T18:33:07.118Z,13.46
2018-12-06T18:35:00.041Z,13.39
2018-12-06T18:36:00.049Z,13.29
2018-12-06T18:37:52.953Z,13.42
2018-12-06T18:38:53.033Z,13.30
2018-12-06T18:40:45.975Z,13.38
2018-12-06T18:41:45.926Z,13.28
2018-12-06T18:43:38.860Z,13.39